createdAt,value
2018-06-12T00:00:23.783Z,17.10
2018-06-12T00:03:34.523Z,17.00
2018-06-12T00:06:45.348Z,17.00
2018-06-12T00:09:55.953Z,16.60
2018-06-12T00:13:06.769Z,16.80
2018-06-12T00:16:17.691Z,16.70
2018-06-12T00:19:28.895Z,16.70
2018-06-12T00:22:39.209Z,16.60
2018-06-12T00:25:50.171Z,16.70
2018-06-12T00:29:01.075Z,16.80
2018-06-12T00:32:12.138Z,16.80
2018-06-12T00:35:22.445Z,16.70
2018-06-12T00:38:33.178Z,16.70
2018-06-12T00:41:45.126Z,16.70
2018-06-12T00:44:55.656Z,16.50
2018-06-12T00:48:06.508Z,16.40
2018-06-12T00:51:17.222Z,16.50
2018-06-12T00:54:28.151Z,16.40
2018-06-12T00:57:39.131Z,16.30
2018-06-12T01:00:50.050Z,16.40
2018-06-12T01:04:00.869Z,16.50
2018-06-12T01:07:12.653Z,16.40
2018-06-12T01:10:23.230Z,16.40
2018-06-12T01:13:33.746Z,16.40
2018-06-12T01:16:44.663Z,16.60
2018-06-12T01:19:55.737Z,16.60
2018-06-12T01:23:06.426Z,16.60
2018-06-12T01:26:17.170Z,16.40
2018-06-12T01:29:31.016Z,16.20
2018-06-12T01:32:41.476Z,16.20
2018-06-12T01:35:51.944Z,16.00
2018-06-12T01:39:03.136Z,16.00
2018-06-12T01:42:13.630Z,16.00
2018-06-12T01:45:24.440Z,15.90
2018-06-12T01:48:34.762Z,16.10
2018-06-12T01:51:45.275Z,16.20
2018-06-12T01:54:55.522Z,16.20
2018-06-12T01:58:06.344Z,16.20
2018-06-12T02:01:17.420Z,16.20
2018-06-12T02:04:28.138Z,16.20
2018-06-12T02:07:38.897Z,16.20
2018-06-12T02:10:49.004Z,16.10
2018-06-12T02:13:59.219Z,16.00
2018-06-12T02:17:10.284Z,15.90
2018-06-12T02:20:21.161Z,16.00
2018-06-12T02:23:31.271Z,16.00
2018-06-12T02:29:52.721Z,16.10
2018-06-12T02:33:03.483Z,16.20
2018-06-12T02:36:14.240Z,16.30
2018-06-12T02:39:25.155Z,16.20
2018-06-12T02:42:36.017Z,16.20
2018-06-12T02:45:46.998Z,16.20
2018-06-12T02:48:58.186Z,16.30
2018-06-12T02:52:08.764Z,16.20
2018-06-12T02:55:19.458Z,16.20
2018-06-12T02:58:30.675Z,16.20
2018-06-12T03:01:41.914Z,16.20
2018-06-12T03:04:52.302Z,16.10
2018-06-12T03:08:03.112Z,16.00
2018-06-12T03:11:13.851Z,16.10
2018-06-12T03:14:24.553Z,16.10
2018-06-12T03:17:35.651Z,16.10
2018-06-12T03:20:47.220Z,16.10
2018-06-12T03:23:57.456Z,16.20
2018-06-12T03:27:07.687Z,16.10
2018-06-12T03:30:18.695Z,16.10
2018-06-12T03:33:29.128Z,16.10
2018-06-12T03:36:39.658Z,16.00
2018-06-12T03:39:49.720Z,16.10
2018-06-12T03:43:00.867Z,16.10
2018-06-12T03:46:11.671Z,16.10
2018-06-12T03:49:21.805Z,16.10
2018-06-12T03:52:33.704Z,15.90
2018-06-12T03:55:43.783Z,16.10
2018-06-12T03:58:54.585Z,16.00
2018-06-12T04:02:07.514Z,16.00
2018-06-12T04:05:18.210Z,15.80
2018-06-12T04:08:29.173Z,15.80
2018-06-12T04:11:39.754Z,15.90
2018-06-12T04:14:50.202Z,15.80
2018-06-12T04:18:01.151Z,15.90
2018-06-12T04:21:12.248Z,15.90
2018-06-12T04:24:23.017Z,15.90
2018-06-12T04:27:33.943Z,15.90
2018-06-12T04:30:44.843Z,15.70
2018-06-12T04:33:55.125Z,15.70
2018-06-12T04:37:05.583Z,15.70
2018-06-12T04:40:16.043Z,15.80
2018-06-12T04:43:26.737Z,15.80
2018-06-12T04:46:37.671Z,15.80
2018-06-12T04:49:48.144Z,15.60
2018-06-12T04:52:58.968Z,15.80
2018-06-12T04:56:10.042Z,15.90
2018-06-12T04:59:20.953Z,15.80
2018-06-12T05:02:32.326Z,15.70
2018-06-12T05:05:42.983Z,15.70
2018-06-12T05:08:53.795Z,15.60
2018-06-12T05:12:04.427Z,15.60
2018-06-12T05:15:15.250Z,15.60
2018-06-12T05:18:26.036Z,15.70
2018-06-12T05:21:36.802Z,15.50
2018-06-12T05:24:47.680Z,15.50
2018-06-12T05:27:58.398Z,15.50
2018-06-12T05:31:09.154Z,15.50
2018-06-12T05:34:19.987Z,15.40
2018-06-12T05:37:30.727Z,15.40
2018-06-12T05:40:41.403Z,15.40
2018-06-12T05:43:52.183Z,15.20
2018-06-12T05:47:03.325Z,15.20
2018-06-12T05:50:14.211Z,15.10
2018-06-12T05:53:25.133Z,15.10
2018-06-12T05:56:35.376Z,15.10
2018-06-12T05:59:45.799Z,15.10
2018-06-12T06:02:57.583Z,15.20
2018-06-12T06:06:07.834Z,15.30
2018-06-12T06:09:18.530Z,15.10
2018-06-12T06:12:29.652Z,15.20
2018-06-12T06:15:40.552Z,15.20
2018-06-12T06:18:51.535Z,15.20
2018-06-12T06:22:03.204Z,15.10
2018-06-12T06:25:13.458Z,15.10
2018-06-12T06:28:24.346Z,15.10
2018-06-12T06:31:35.118Z,15.10
2018-06-12T06:34:45.950Z,15.10
2018-06-12T06:37:56.696Z,15.10
2018-06-12T06:41:07.549Z,15.20
2018-06-12T06:44:18.228Z,15.10
2018-06-12T06:47:29.200Z,15.10
2018-06-12T06:50:40.057Z,15.00
2018-06-12T06:53:50.975Z,15.10
2018-06-12T06:57:01.776Z,15.10
2018-06-12T07:00:12.687Z,15.10
2018-06-12T07:03:23.703Z,15.10
2018-06-12T07:06:34.141Z,15.20
2018-06-12T07:09:45.084Z,15.20
2018-06-12T07:12:56.246Z,15.10
2018-06-12T07:16:06.787Z,15.20
2018-06-12T07:19:17.549Z,15.20
2018-06-12T07:22:28.233Z,15.00
2018-06-12T07:25:39.304Z,15.10
2018-06-12T07:28:49.519Z,15.10
2018-06-12T07:32:00.263Z,15.20
2018-06-12T07:35:11.146Z,15.10
2018-06-12T07:38:22.196Z,15.20
2018-06-12T07:41:32.959Z,15.30
2018-06-12T07:44:43.822Z,15.30
2018-06-12T07:47:54.627Z,15.40
2018-06-12T07:51:05.780Z,15.50
2018-06-12T07:54:16.349Z,15.70
2018-06-12T07:57:26.503Z,15.60
2018-06-12T08:00:37.219Z,15.80
2018-06-12T08:03:48.658Z,15.90
2018-06-12T08:06:59.041Z,15.70
2018-06-12T08:10:09.751Z,15.80
2018-06-12T08:13:20.488Z,15.90
2018-06-12T08:16:30.522Z,15.80
2018-06-12T08:19:40.923Z,15.80
2018-06-12T08:22:51.482Z,15.80
2018-06-12T08:26:01.878Z,15.50
2018-06-12T08:29:12.494Z,15.40
2018-06-12T08:32:22.843Z,15.60
2018-06-12T08:35:33.688Z,15.70
2018-06-12T08:38:44.467Z,15.80
2018-06-12T08:41:54.577Z,16.00
2018-06-12T08:45:05.835Z,16.10
2018-06-12T08:48:16.649Z,16.20
2018-06-12T08:51:27.414Z,16.20
2018-06-12T08:54:38.078Z,16.30
2018-06-12T08:57:48.384Z,16.40
2018-06-12T09:00:58.826Z,16.60
2018-06-12T09:04:09.808Z,16.60
2018-06-12T09:07:20.426Z,16.80
2018-06-12T09:10:31.267Z,16.90
2018-06-12T09:13:42.071Z,17.00
2018-06-12T09:16:52.219Z,17.10
2018-06-12T09:20:03.501Z,17.10
2018-06-12T09:23:13.468Z,17.20
2018-06-12T09:26:23.581Z,16.90
2018-06-12T09:29:33.808Z,17.00
2018-06-12T09:32:44.813Z,17.00
2018-06-12T09:35:59.064Z,17.20
2018-06-12T09:39:10.253Z,17.10
2018-06-12T09:42:21.305Z,17.20
2018-06-12T09:45:32.422Z,17.10
2018-06-12T09:48:43.145Z,17.10
2018-06-12T09:51:54.033Z,17.20
2018-06-12T09:55:05.416Z,17.30
2018-06-12T09:58:15.693Z,17.20
2018-06-12T10:01:26.618Z,17.10
2018-06-12T10:04:37.969Z,17.00
2018-06-12T10:07:48.639Z,17.00
2018-06-12T10:10:59.349Z,17.00
2018-06-12T10:14:11.240Z,17.00
2018-06-12T10:17:22.429Z,17.10
2018-06-12T10:20:32.875Z,17.10
2018-06-12T10:23:43.893Z,17.00
2018-06-12T10:26:54.047Z,16.90
2018-06-12T10:30:05.050Z,16.90
2018-06-12T10:33:16.143Z,17.00
2018-06-12T10:36:27.109Z,17.00
2018-06-12T10:39:37.964Z,16.80
2018-06-12T10:42:48.578Z,16.90
2018-06-12T10:45:58.824Z,16.90
2018-06-12T10:49:09.667Z,17.00
2018-06-12T10:52:19.654Z,16.90
2018-06-12T10:55:30.397Z,17.10
2018-06-12T10:58:41.216Z,17.00
2018-06-12T11:01:51.233Z,17.10
2018-06-12T11:05:02.299Z,17.30
2018-06-12T11:08:13.132Z,17.30
2018-06-12T11:11:23.977Z,17.40
2018-06-12T11:14:34.807Z,17.50
2018-06-12T11:17:45.538Z,17.60
2018-06-12T11:20:56.323Z,17.60
2018-06-12T11:24:07.278Z,17.60
2018-06-12T11:27:18.176Z,17.70
2018-06-12T11:30:28.841Z,17.80
2018-06-12T11:33:39.395Z,17.90
2018-06-12T11:36:50.339Z,17.80
2018-06-12T11:40:01.281Z,17.80
2018-06-12T11:43:12.099Z,17.90
2018-06-12T11:49:33.219Z,17.80
2018-06-12T11:52:43.951Z,17.80
2018-06-12T11:55:54.932Z,17.90
2018-06-12T11:59:05.024Z,18.10
2018-06-12T12:02:15.265Z,18.10
2018-06-12T12:05:26.289Z,18.00
2018-06-12T12:08:36.911Z,18.10
2018-06-12T12:11:47.721Z,18.10
2018-06-12T12:14:58.528Z,18.00
2018-06-12T12:18:09.677Z,17.90
2018-06-12T12:21:20.396Z,18.00
2018-06-12T12:24:31.573Z,18.00
2018-06-12T12:27:41.775Z,18.10
2018-06-12T12:30:53.242Z,18.00
2018-06-12T12:34:03.365Z,17.90
2018-06-12T12:37:14.383Z,17.90
2018-06-12T12:40:25.854Z,17.80
2018-06-12T12:43:36.234Z,17.80
2018-06-12T12:46:46.246Z,17.80
2018-06-12T12:49:56.334Z,17.60
2018-06-12T12:53:06.655Z,17.60
2018-06-12T12:56:17.326Z,17.60
2018-06-12T12:59:28.566Z,17.60
2018-06-12T13:02:39.242Z,17.70
2018-06-12T13:05:50.368Z,17.40
2018-06-12T13:09:01.088Z,17.50
2018-06-12T13:12:11.576Z,17.60
2018-06-12T13:15:21.885Z,17.70
2018-06-12T13:18:32.767Z,17.80
2018-06-12T13:21:43.747Z,17.90
2018-06-12T13:24:54.183Z,17.90
2018-06-12T13:28:05.194Z,18.00
2018-06-12T13:31:16.020Z,18.10
2018-06-12T13:34:26.217Z,18.10
2018-06-12T13:37:36.428Z,18.20
2018-06-12T13:40:46.797Z,18.30
2018-06-12T13:43:58.320Z,18.30
2018-06-12T13:47:08.949Z,18.40
2018-06-12T13:50:19.899Z,18.40
2018-06-12T13:53:30.468Z,18.50
2018-06-12T13:56:41.161Z,18.60
2018-06-12T13:59:51.564Z,18.60
2018-06-12T14:03:01.583Z,18.50
2018-06-12T14:06:12.126Z,18.60
2018-06-12T14:09:23.162Z,18.60
2018-06-12T14:12:34.012Z,18.60
2018-06-12T14:15:44.164Z,18.80
2018-06-12T14:18:55.203Z,18.80
2018-06-12T14:22:06.265Z,18.80
2018-06-12T14:25:17.000Z,18.80
2018-06-12T14:28:27.768Z,18.90
2018-06-12T14:31:38.566Z,19.00
2018-06-12T14:34:48.948Z,19.10
2018-06-12T14:37:59.976Z,19.10
2018-06-12T14:41:10.185Z,19.20
2018-06-12T14:44:20.982Z,19.20
2018-06-12T14:47:31.821Z,19.30
2018-06-12T14:50:42.049Z,19.20
2018-06-12T14:53:52.856Z,19.20
2018-06-12T14:57:05.138Z,19.30
2018-06-12T15:00:15.584Z,19.10
2018-06-12T15:03:26.261Z,19.20
2018-06-12T15:06:37.254Z,19.10
2018-06-12T15:09:47.800Z,19.10
2018-06-12T15:12:58.907Z,19.00
2018-06-12T15:16:09.252Z,19.00
2018-06-12T15:19:19.904Z,19.00
2018-06-12T15:22:30.830Z,19.10
2018-06-12T15:25:40.865Z,19.10
2018-06-12T15:28:51.164Z,19.20
2018-06-12T15:32:01.273Z,19.20
2018-06-12T15:35:12.204Z,19.10
2018-06-12T15:38:22.612Z,19.10
2018-06-12T15:41:33.474Z,19.10
2018-06-12T15:44:43.568Z,19.00
2018-06-12T15:47:54.432Z,19.10
2018-06-12T15:51:05.318Z,19.10
2018-06-12T15:54:15.331Z,19.10
2018-06-12T15:57:26.238Z,19.20
2018-06-12T16:00:36.845Z,19.20
2018-06-12T16:03:47.515Z,19.20
2018-06-12T16:06:58.555Z,19.20
2018-06-12T16:10:08.820Z,19.20
2018-06-12T16:13:19.743Z,19.20
2018-06-12T16:16:30.536Z,19.10
2018-06-12T16:19:41.413Z,19.10
2018-06-12T16:22:51.904Z,19.10
2018-06-12T16:26:02.692Z,19.10
2018-06-12T16:29:13.807Z,19.10
2018-06-12T16:32:24.452Z,19.10
2018-06-12T16:35:35.430Z,19.00
2018-06-12T16:38:48.552Z,18.80
2018-06-12T16:41:59.958Z,18.90
2018-06-12T16:45:12.103Z,18.80
2018-06-12T16:48:22.636Z,18.70
2018-06-12T16:51:33.264Z,18.50
2018-06-12T16:54:43.240Z,18.40
2018-06-12T16:57:54.159Z,18.40
2018-06-12T17:01:05.130Z,18.30
2018-06-12T17:04:15.570Z,18.20
2018-06-12T17:07:27.315Z,18.30
2018-06-12T17:10:38.214Z,18.30
2018-06-12T17:13:48.878Z,18.30
2018-06-12T17:16:59.817Z,18.20
2018-06-12T17:20:10.196Z,18.30
2018-06-12T17:23:21.391Z,18.10
2018-06-12T17:26:31.972Z,18.10
2018-06-12T17:29:43.343Z,18.10
2018-06-12T17:32:53.974Z,18.10
2018-06-12T17:36:04.808Z,18.00
2018-06-12T17:39:15.344Z,18.00
2018-06-12T17:42:26.201Z,18.00
2018-06-12T17:45:37.222Z,17.90
2018-06-12T17:48:48.264Z,17.70
2018-06-12T17:51:58.454Z,17.70
2018-06-12T17:55:09.222Z,17.70
2018-06-12T17:58:20.144Z,17.60
2018-06-12T18:01:31.078Z,17.50
2018-06-12T18:04:41.733Z,17.40
2018-06-12T18:07:52.727Z,17.40
2018-06-12T18:11:03.256Z,17.30
2018-06-12T18:14:14.655Z,17.30
2018-06-12T18:17:25.728Z,17.20
2018-06-12T18:20:36.709Z,17.10
2018-06-12T18:23:47.560Z,17.10
2018-06-12T18:26:58.340Z,17.10
2018-06-12T18:30:09.084Z,17.00
2018-06-12T18:33:20.161Z,17.00
2018-06-12T18:39:41.544Z,16.90
2018-06-12T18:42:52.336Z,16.90
2018-06-12T18:46:03.384Z,16.90
2018-06-12T18:49:14.208Z,16.90
2018-06-12T18:55:35.429Z,16.80
2018-06-12T18:58:46.845Z,16.70
2018-06-12T19:01:57.047Z,16.80
2018-06-12T19:05:07.423Z,16.90
2018-06-12T19:08:17.811Z,16.80
2018-06-12T19:11:28.637Z,16.80
2018-06-12T19:14:39.138Z,16.80
2018-06-12T19:17:50.238Z,16.90
2018-06-12T19:21:00.740Z,16.80
2018-06-12T19:24:11.455Z,16.90
2018-06-12T19:27:22.123Z,16.80
2018-06-12T19:30:32.840Z,16.70
2018-06-12T19:33:42.960Z,16.60
2018-06-12T19:36:53.793Z,16.70
2018-06-12T19:40:04.718Z,16.70
2018-06-12T19:43:15.728Z,16.70
2018-06-12T19:46:26.023Z,16.70
2018-06-12T19:49:36.943Z,16.70
2018-06-12T19:52:47.516Z,16.70
2018-06-12T19:55:58.438Z,16.70
2018-06-12T19:59:09.091Z,16.70
2018-06-12T20:02:20.098Z,16.80
2018-06-12T20:05:30.795Z,16.70
2018-06-12T20:08:41.523Z,16.70
2018-06-12T20:11:51.436Z,16.70
2018-06-12T20:15:02.036Z,16.70
2018-06-12T20:18:12.491Z,16.70
2018-06-12T20:21:23.264Z,16.70
2018-06-12T20:24:33.932Z,16.60
2018-06-12T20:27:45.093Z,16.60
2018-06-12T20:30:55.628Z,16.60
2018-06-12T20:37:16.982Z,16.60
2018-06-12T20:40:27.653Z,16.60
2018-06-12T20:43:38.403Z,16.60
2018-06-12T20:46:49.366Z,16.60
2018-06-12T20:50:00.108Z,16.60
2018-06-12T20:53:10.973Z,16.50
2018-06-12T20:56:21.864Z,16.60
2018-06-12T20:59:32.683Z,16.50
2018-06-12T21:02:43.186Z,16.40
2018-06-12T21:05:54.007Z,16.40
2018-06-12T21:09:06.451Z,16.50
2018-06-12T21:12:17.307Z,16.30
2018-06-12T21:15:27.903Z,16.40
2018-06-12T21:18:38.537Z,16.30
2018-06-12T21:21:48.928Z,16.40
2018-06-12T21:24:59.812Z,16.40
2018-06-12T21:28:10.389Z,16.40
2018-06-12T21:31:22.379Z,16.50
2018-06-12T21:34:33.064Z,16.50
2018-06-12T21:37:43.791Z,16.50
2018-06-12T21:40:53.881Z,16.50
2018-06-12T21:44:03.909Z,16.50
2018-06-12T21:47:14.612Z,16.40
2018-06-12T21:50:25.016Z,16.30
2018-06-12T21:53:35.016Z,16.20
2018-06-12T21:56:45.650Z,16.10
2018-06-12T21:59:56.115Z,16.00
2018-06-12T22:03:06.871Z,15.80
2018-06-12T22:06:17.904Z,15.80
2018-06-12T22:09:28.783Z,15.80
2018-06-12T22:12:38.842Z,15.80
2018-06-12T22:15:49.950Z,15.70
2018-06-12T22:19:00.912Z,15.80
2018-06-12T22:22:11.589Z,15.70
2018-06-12T22:25:22.451Z,15.60
2018-06-12T22:28:32.452Z,15.60
2018-06-12T22:31:43.196Z,15.50
2018-06-12T22:34:53.543Z,15.60
2018-06-12T22:38:04.365Z,15.60
2018-06-12T22:41:15.076Z,15.60
2018-06-12T22:44:25.976Z,15.60
2018-06-12T22:47:36.906Z,15.70
2018-06-12T22:50:47.847Z,15.60
2018-06-12T22:53:58.583Z,15.60
2018-06-12T22:57:09.331Z,15.60
2018-06-12T23:00:21.343Z,15.50
2018-06-12T23:03:31.396Z,15.50
2018-06-12T23:06:41.558Z,15.40
2018-06-12T23:09:51.839Z,15.30
2018-06-12T23:13:02.557Z,15.30
2018-06-12T23:16:13.282Z,15.30
2018-06-12T23:19:23.922Z,15.20
2018-06-12T23:22:33.981Z,15.30
2018-06-12T23:25:44.585Z,15.30
2018-06-12T23:28:55.282Z,15.40
2018-06-12T23:32:06.043Z,15.40
2018-06-12T23:35:16.078Z,15.30
2018-06-12T23:38:26.769Z,15.30
2018-06-12T23:41:36.695Z,15.30
2018-06-12T23:47:57.189Z,15.20
2018-06-12T23:51:07.723Z,15.20
2018-06-12T23:54:17.712Z,15.10
2018-06-12T23:57:27.843Z,15.00
